sensor_id;sensor_type;location;lat;lon;timestamp;temperature;humidity
46754;DHT22;32500;50.620;3.400;2022-10-16T00:02:00;18.80;79.30
46754;DHT22;32500;50.620;3.400;2022-10-16T00:04:25;18.80;79.30
46754;DHT22;32500;50.620;3.400;2022-10-16T00:06:51;18.80;79.40
46754;DHT22;32500;50.620;3.400;2022-10-16T00:09:16;18.80;79.30
46754;DHT22;32500;50.620;3.400;2022-10-16T00:11:42;18.80;79.30
46754;DHT22;32500;50.620;3.400;2022-10-16T00:14:09;18.80;79.30
46754;DHT22;32500;50.620;3.400;2022-10-16T00:16:35;18.80;79.40
46754;DHT22;32500;50.620;3.400;2022-10-16T00:19:01;18.80;79.40
46754;DHT22;32500;50.620;3.400;2022-10-16T00:21:28;18.80;79.40
46754;DHT22;32500;50.620;3.400;2022-10-16T00:23:55;18.80;79.30
46754;DHT22;32500;50.620;3.400;2022-10-16T00:26:21;18.80;79.50
46754;DHT22;32500;50.620;3.400;2022-10-16T00:28:47;18.80;79.50
46754;DHT22;32500;50.620;3.400;2022-10-16T00:31:13;18.80;79.30
46754;DHT22;32500;50.620;3.400;2022-10-16T00:33:39;18.80;79.30
46754;DHT22;32500;50.620;3.400;2022-10-16T00:36:06;18.80;79.30
46754;DHT22;32500;50.620;3.400;2022-10-16T00:38:32;18.80;79.30
46754;DHT22;32500;50.620;3.400;2022-10-16T00:40:58;18.80;79.30
46754;DHT22;32500;50.620;3.400;2022-10-16T00:45:58;18.80;79.20
46754;DHT22;32500;50.620;3.400;2022-10-16T00:48:24;18.80;79.20
46754;DHT22;32500;50.620;3.400;2022-10-16T00:50:50;18.80;79.20
46754;DHT22;32500;50.620;3.400;2022-10-16T00:53:16;18.80;79.30
46754;DHT22;32500;50.620;3.400;2022-10-16T00:55:41;18.80;79.40
46754;DHT22;32500;50.620;3.400;2022-10-16T00:58:07;18.80;79.30
46754;DHT22;32500;50.620;3.400;2022-10-16T01:00:32;18.80;79.20
46754;DHT22;32500;50.620;3.400;2022-10-16T01:02:59;18.80;79.20
46754;DHT22;32500;50.620;3.400;2022-10-16T01:05:28;18.80;79.20
46754;DHT22;32500;50.620;3.400;2022-10-16T01:08:02;18.80;79.20
46754;DHT22;32500;50.620;3.400;2022-10-16T01:10:40;18.80;79.00
46754;DHT22;32500;50.620;3.400;2022-10-16T01:13:09;18.80;79.10
46754;DHT22;32500;50.620;3.400;2022-10-16T01:15:52;18.80;79.00
46754;DHT22;32500;50.620;3.400;2022-10-16T01:18:39;18.80;79.00
46754;DHT22;32500;50.620;3.400;2022-10-16T01:31:08;18.80;79.00
46754;DHT22;32500;50.620;3.400;2022-10-16T01:33:35;18.80;79.10
46754;DHT22;32500;50.620;3.400;2022-10-16T01:36:12;18.80;79.00
46754;DHT22;32500;50.620;3.400;2022-10-16T01:38:38;18.80;79.10
46754;DHT22;32500;50.620;3.400;2022-10-16T01:41:09;18.80;79.10
46754;DHT22;32500;50.620;3.400;2022-10-16T01:43:43;18.80;79.10
46754;DHT22;32500;50.620;3.400;2022-10-16T01:46:08;18.80;79.10
46754;DHT22;32500;50.620;3.400;2022-10-16T01:48:35;18.80;79.00
46754;DHT22;32500;50.620;3.400;2022-10-16T01:51:08;18.80;79.10
46754;DHT22;32500;50.620;3.400;2022-10-16T01:53:35;18.80;79.10
46754;DHT22;32500;50.620;3.400;2022-10-16T01:56:02;18.80;79.20
46754;DHT22;32500;50.620;3.400;2022-10-16T01:58:29;18.80;79.10
46754;DHT22;32500;50.620;3.400;2022-10-16T02:00:59;18.80;79.10
46754;DHT22;32500;50.620;3.400;2022-10-16T02:03:26;18.80;79.10
46754;DHT22;32500;50.620;3.400;2022-10-16T02:05:55;18.80;79.00
46754;DHT22;32500;50.620;3.400;2022-10-16T02:08:22;18.80;79.00
46754;DHT22;32500;50.620;3.400;2022-10-16T02:10:48;18.80;78.90
46754;DHT22;32500;50.620;3.400;2022-10-16T02:13:17;18.80;79.00
46754;DHT22;32500;50.620;3.400;2022-10-16T02:15:44;18.80;79.10
46754;DHT22;32500;50.620;3.400;2022-10-16T02:18:10;18.80;79.00
46754;DHT22;32500;50.620;3.400;2022-10-16T02:20:43;18.70;79.00
46754;DHT22;32500;50.620;3.400;2022-10-16T02:23:10;18.80;79.00
46754;DHT22;32500;50.620;3.400;2022-10-16T02:25:37;18.80;79.10
46754;DHT22;32500;50.620;3.400;2022-10-16T02:30:39;18.70;79.10
46754;DHT22;32500;50.620;3.400;2022-10-16T02:33:07;18.80;79.10
46754;DHT22;32500;50.620;3.400;2022-10-16T02:35:32;18.80;79.10
46754;DHT22;32500;50.620;3.400;2022-10-16T02:37:59;18.70;79.10
46754;DHT22;32500;50.620;3.400;2022-10-16T02:40:24;18.70;79.00
46754;DHT22;32500;50.620;3.400;2022-10-16T02:42:51;18.70;79.00
46754;DHT22;32500;50.620;3.400;2022-10-16T02:45:17;18.70;79.00
46754;DHT22;32500;50.620;3.400;2022-10-16T02:47:42;18.80;79.10
46754;DHT22;32500;50.620;3.400;2022-10-16T02:50:08;18.70;79.00
46754;DHT22;32500;50.620;3.400;2022-10-16T02:52:33;18.70;79.00
46754;DHT22;32500;50.620;3.400;2022-10-16T02:54:59;18.70;79.00
46754;DHT22;32500;50.620;3.400;2022-10-16T02:57:24;18.70;79.10
46754;DHT22;32500;50.620;3.400;2022-10-16T02:59:50;18.70;79.00
46754;DHT22;32500;50.620;3.400;2022-10-16T03:02:15;18.70;79.00
46754;DHT22;32500;50.620;3.400;2022-10-16T03:04:41;18.70;79.00
46754;DHT22;32500;50.620;3.400;2022-10-16T03:07:06;18.70;78.90
46754;DHT22;32500;50.620;3.400;2022-10-16T03:09:32;18.80;78.90
46754;DHT22;32500;50.620;3.400;2022-10-16T03:11:58;18.70;79.00
46754;DHT22;32500;50.620;3.400;2022-10-16T03:14:24;18.70;79.00
46754;DHT22;32500;50.620;3.400;2022-10-16T03:16:49;18.70;79.00
46754;DHT22;32500;50.620;3.400;2022-10-16T03:19:16;18.70;79.00
46754;DHT22;32500;50.620;3.400;2022-10-16T03:21:41;18.70;79.00
46754;DHT22;32500;50.620;3.400;2022-10-16T03:24:07;18.70;78.90
46754;DHT22;32500;50.620;3.400;2022-10-16T03:26:33;18.70;79.00
46754;DHT22;32500;50.620;3.400;2022-10-16T03:28:58;18.70;79.00
46754;DHT22;32500;50.620;3.400;2022-10-16T03:31:24;18.70;78.80
46754;DHT22;32500;50.620;3.400;2022-10-16T03:33:49;18.70;78.80
46754;DHT22;32500;50.620;3.400;2022-10-16T03:36:15;18.70;79.00
46754;DHT22;32500;50.620;3.400;2022-10-16T03:38:40;18.70;79.00
46754;DHT22;32500;50.620;3.400;2022-10-16T03:41:06;18.70;78.80
46754;DHT22;32500;50.620;3.400;2022-10-16T03:43:33;18.70;78.90
46754;DHT22;32500;50.620;3.400;2022-10-16T03:45:58;18.70;78.80
46754;DHT22;32500;50.620;3.400;2022-10-16T03:48:24;18.70;78.90
46754;DHT22;32500;50.620;3.400;2022-10-16T03:50:49;18.70;78.90
46754;DHT22;32500;50.620;3.400;2022-10-16T03:53:16;18.70;79.00
46754;DHT22;32500;50.620;3.400;2022-10-16T03:55:42;18.70;79.00
46754;DHT22;32500;50.620;3.400;2022-10-16T03:58:08;18.70;78.90
46754;DHT22;32500;50.620;3.400;2022-10-16T04:00:34;18.70;78.90
46754;DHT22;32500;50.620;3.400;2022-10-16T04:03:00;18.70;78.90
46754;DHT22;32500;50.620;3.400;2022-10-16T04:05:25;18.70;78.80
46754;DHT22;32500;50.620;3.400;2022-10-16T04:07:51;18.70;78.80
46754;DHT22;32500;50.620;3.400;2022-10-16T04:10:16;18.70;78.90
46754;DHT22;32500;50.620;3.400;2022-10-16T04:12:42;18.70;79.00
46754;DHT22;32500;50.620;3.400;2022-10-16T04:15:08;18.70;79.00
46754;DHT22;32500;50.620;3.400;2022-10-16T04:17:33;18.70;78.90
46754;DHT22;32500;50.620;3.400;2022-10-16T04:19:59;18.70;78.80
46754;DHT22;32500;50.620;3.400;2022-10-16T04:22:24;18.70;78.80
46754;DHT22;32500;50.620;3.400;2022-10-16T04:24:50;18.70;78.80
46754;DHT22;32500;50.620;3.400;2022-10-16T04:27:16;18.70;78.80
46754;DHT22;32500;50.620;3.400;2022-10-16T04:29:41;18.70;78.80
46754;DHT22;32500;50.620;3.400;2022-10-16T04:32:08;18.70;79.60
46754;DHT22;32500;50.620;3.400;2022-10-16T04:34:33;18.70;78.80
46754;DHT22;32500;50.620;3.400;2022-10-16T04:36:59;18.70;78.70
46754;DHT22;32500;50.620;3.400;2022-10-16T04:39:25;18.70;78.70
46754;DHT22;32500;50.620;3.400;2022-10-16T04:41:51;18.70;78.70
46754;DHT22;32500;50.620;3.400;2022-10-16T04:44:16;18.70;78.80
46754;DHT22;32500;50.620;3.400;2022-10-16T04:46:42;18.70;78.80
46754;DHT22;32500;50.620;3.400;2022-10-16T04:49:07;18.60;78.70
46754;DHT22;32500;50.620;3.400;2022-10-16T04:51:33;18.60;78.70
46754;DHT22;32500;50.620;3.400;2022-10-16T04:53:58;18.60;78.80
46754;DHT22;32500;50.620;3.400;2022-10-16T04:56:24;18.60;78.70
46754;DHT22;32500;50.620;3.400;2022-10-16T04:58:50;18.60;78.70
46754;DHT22;32500;50.620;3.400;2022-10-16T05:01:15;18.60;78.70
46754;DHT22;32500;50.620;3.400;2022-10-16T05:03:41;18.60;78.70
46754;DHT22;32500;50.620;3.400;2022-10-16T05:06:06;18.60;78.60
46754;DHT22;32500;50.620;3.400;2022-10-16T05:08:32;18.60;78.60
46754;DHT22;32500;50.620;3.400;2022-10-16T05:10:58;18.60;78.70
46754;DHT22;32500;50.620;3.400;2022-10-16T05:13:23;18.60;78.60
46754;DHT22;32500;50.620;3.400;2022-10-16T05:15:49;18.60;78.70
46754;DHT22;32500;50.620;3.400;2022-10-16T05:18:15;18.60;78.70
46754;DHT22;32500;50.620;3.400;2022-10-16T05:20:41;18.60;78.70
46754;DHT22;32500;50.620;3.400;2022-10-16T05:23:07;18.60;78.80
46754;DHT22;32500;50.620;3.400;2022-10-16T05:25:32;18.60;78.70
46754;DHT22;32500;50.620;3.400;2022-10-16T05:27:58;18.60;78.80
46754;DHT22;32500;50.620;3.400;2022-10-16T05:30:23;18.60;78.80
46754;DHT22;32500;50.620;3.400;2022-10-16T05:32:49;18.60;78.70
46754;DHT22;32500;50.620;3.400;2022-10-16T05:35:15;18.60;78.60
46754;DHT22;32500;50.620;3.400;2022-10-16T05:37:41;18.60;78.70
46754;DHT22;32500;50.620;3.400;2022-10-16T05:40:06;18.60;78.70
46754;DHT22;32500;50.620;3.400;2022-10-16T05:42:32;18.60;78.70
46754;DHT22;32500;50.620;3.400;2022-10-16T05:44:57;18.60;78.70
46754;DHT22;32500;50.620;3.400;2022-10-16T05:47:23;18.60;78.90
46754;DHT22;32500;50.620;3.400;2022-10-16T05:49:48;18.60;78.90
46754;DHT22;32500;50.620;3.400;2022-10-16T05:52:14;18.60;78.70
46754;DHT22;32500;50.620;3.400;2022-10-16T05:54:40;18.60;79.50
46754;DHT22;32500;50.620;3.400;2022-10-16T05:57:05;18.60;78.80
46754;DHT22;32500;50.620;3.400;2022-10-16T05:59:31;18.60;78.70
46754;DHT22;32500;50.620;3.400;2022-10-16T06:01:57;18.60;78.70
46754;DHT22;32500;50.620;3.400;2022-10-16T06:04:22;18.60;78.50
46754;DHT22;32500;50.620;3.400;2022-10-16T06:06:48;18.60;78.60
46754;DHT22;32500;50.620;3.400;2022-10-16T06:09:14;18.60;78.70
46754;DHT22;32500;50.620;3.400;2022-10-16T06:11:39;18.60;78.60
46754;DHT22;32500;50.620;3.400;2022-10-16T06:14:05;18.60;78.60
46754;DHT22;32500;50.620;3.400;2022-10-16T06:16:33;18.60;78.60
46754;DHT22;32500;50.620;3.400;2022-10-16T06:18:58;18.60;78.60
46754;DHT22;32500;50.620;3.400;2022-10-16T06:21:27;18.60;78.50
46754;DHT22;32500;50.620;3.400;2022-10-16T06:23:54;18.60;78.50
46754;DHT22;32500;50.620;3.400;2022-10-16T06:26:21;18.60;78.60
46754;DHT22;32500;50.620;3.400;2022-10-16T06:28:46;18.60;78.60
46754;DHT22;32500;50.620;3.400;2022-10-16T06:31:13;18.50;78.70
46754;DHT22;32500;50.620;3.400;2022-10-16T06:33:39;18.60;78.70
46754;DHT22;32500;50.620;3.400;2022-10-16T06:36:06;18.50;78.70
46754;DHT22;32500;50.620;3.400;2022-10-16T06:38:32;18.50;78.70
46754;DHT22;32500;50.620;3.400;2022-10-16T06:40:58;18.50;78.60
46754;DHT22;32500;50.620;3.400;2022-10-16T06:43:23;18.50;78.70
46754;DHT22;32500;50.620;3.400;2022-10-16T06:45:56;18.50;78.60
46754;DHT22;32500;50.620;3.400;2022-10-16T06:48:22;18.50;78.70
46754;DHT22;32500;50.620;3.400;2022-10-16T06:53:22;18.60;78.60
46754;DHT22;32500;50.620;3.400;2022-10-16T06:55:48;18.50;78.50
46754;DHT22;32500;50.620;3.400;2022-10-16T06:58:14;18.50;78.60
46754;DHT22;32500;50.620;3.400;2022-10-16T07:00:39;18.50;78.60
46754;DHT22;32500;50.620;3.400;2022-10-16T07:03:05;18.60;78.60
46754;DHT22;32500;50.620;3.400;2022-10-16T07:05:30;18.60;78.70
46754;DHT22;32500;50.620;3.400;2022-10-16T07:07:56;18.60;78.70
46754;DHT22;32500;50.620;3.400;2022-10-16T07:10:21;18.60;78.80
46754;DHT22;32500;50.620;3.400;2022-10-16T07:12:49;18.60;78.80
46754;DHT22;32500;50.620;3.400;2022-10-16T07:15:15;18.60;78.80
46754;DHT22;32500;50.620;3.400;2022-10-16T07:17:40;18.60;78.80
46754;DHT22;32500;50.620;3.400;2022-10-16T07:20:06;18.50;78.80
46754;DHT22;32500;50.620;3.400;2022-10-16T07:22:31;18.60;78.80
46754;DHT22;32500;50.620;3.400;2022-10-16T07:24:57;18.60;78.80
46754;DHT22;32500;50.620;3.400;2022-10-16T07:27:23;18.50;78.80
46754;DHT22;32500;50.620;3.400;2022-10-16T07:29:49;18.50;78.80
46754;DHT22;32500;50.620;3.400;2022-10-16T07:32:15;18.60;78.80
46754;DHT22;32500;50.620;3.400;2022-10-16T07:34:40;18.50;78.80
46754;DHT22;32500;50.620;3.400;2022-10-16T07:37:07;18.60;78.90
46754;DHT22;32500;50.620;3.400;2022-10-16T07:39:32;18.50;78.70
46754;DHT22;32500;50.620;3.400;2022-10-16T07:41:58;18.60;78.70
46754;DHT22;32500;50.620;3.400;2022-10-16T07:44:24;18.60;78.70
46754;DHT22;32500;50.620;3.400;2022-10-16T07:46:49;18.50;78.60
46754;DHT22;32500;50.620;3.400;2022-10-16T07:49:15;18.50;78.60
46754;DHT22;32500;50.620;3.400;2022-10-16T07:51:40;18.60;78.70
46754;DHT22;32500;50.620;3.400;2022-10-16T07:54:07;18.60;78.70
46754;DHT22;32500;50.620;3.400;2022-10-16T07:56:33;18.60;78.80
46754;DHT22;32500;50.620;3.400;2022-10-16T07:58:59;18.60;78.70
46754;DHT22;32500;50.620;3.400;2022-10-16T08:01:24;18.60;78.70
46754;DHT22;32500;50.620;3.400;2022-10-16T08:03:50;18.60;78.80
46754;DHT22;32500;50.620;3.400;2022-10-16T08:06:17;18.60;78.80
46754;DHT22;32500;50.620;3.400;2022-10-16T08:08:42;18.60;78.90
46754;DHT22;32500;50.620;3.400;2022-10-16T08:11:08;18.60;78.90
46754;DHT22;32500;50.620;3.400;2022-10-16T08:13:33;18.60;78.90
46754;DHT22;32500;50.620;3.400;2022-10-16T08:16:00;18.60;79.00
46754;DHT22;32500;50.620;3.400;2022-10-16T08:18:25;18.60;78.90
46754;DHT22;32500;50.620;3.400;2022-10-16T08:20:57;18.60;79.00
46754;DHT22;32500;50.620;3.400;2022-10-16T08:23:23;18.60;79.10
46754;DHT22;32500;50.620;3.400;2022-10-16T08:25:51;18.60;79.10
46754;DHT22;32500;50.620;3.400;2022-10-16T08:28:18;18.70;79.10
46754;DHT22;32500;50.620;3.400;2022-10-16T08:30:44;18.70;79.10
46754;DHT22;32500;50.620;3.400;2022-10-16T08:33:09;18.70;79.20
46754;DHT22;32500;50.620;3.400;2022-10-16T08:35:35;18.70;79.10
46754;DHT22;32500;50.620;3.400;2022-10-16T08:38:02;18.70;79.30
46754;DHT22;32500;50.620;3.400;2022-10-16T08:40:28;18.70;79.20
46754;DHT22;32500;50.620;3.400;2022-10-16T08:48:04;18.70;79.30
46754;DHT22;32500;50.620;3.400;2022-10-16T08:50:31;18.70;79.30
46754;DHT22;32500;50.620;3.400;2022-10-16T08:52:58;18.70;79.30
46754;DHT22;32500;50.620;3.400;2022-10-16T08:58:15;18.70;79.30
46754;DHT22;32500;50.620;3.400;2022-10-16T09:00:41;18.70;79.40
46754;DHT22;32500;50.620;3.400;2022-10-16T09:03:16;18.70;79.40
46754;DHT22;32500;50.620;3.400;2022-10-16T09:05:49;18.70;79.50
46754;DHT22;32500;50.620;3.400;2022-10-16T09:10:58;18.70;79.60
46754;DHT22;32500;50.620;3.400;2022-10-16T09:13:40;18.70;79.60
46754;DHT22;32500;50.620;3.400;2022-10-16T09:21:25;18.70;79.70
46754;DHT22;32500;50.620;3.400;2022-10-16T09:23:51;18.70;79.70
46754;DHT22;32500;50.620;3.400;2022-10-16T09:26:19;18.70;79.70
46754;DHT22;32500;50.620;3.400;2022-10-16T09:28:47;18.70;79.70
46754;DHT22;32500;50.620;3.400;2022-10-16T09:31:16;18.70;79.70
46754;DHT22;32500;50.620;3.400;2022-10-16T09:33:42;18.70;79.60
46754;DHT22;32500;50.620;3.400;2022-10-16T09:36:09;18.80;79.60
46754;DHT22;32500;50.620;3.400;2022-10-16T09:38:36;18.80;79.70
46754;DHT22;32500;50.620;3.400;2022-10-16T09:41:17;18.70;79.70
46754;DHT22;32500;50.620;3.400;2022-10-16T09:43:54;18.70;79.70
46754;DHT22;32500;50.620;3.400;2022-10-16T09:46:22;18.80;79.90
46754;DHT22;32500;50.620;3.400;2022-10-16T09:48:49;18.80;79.90
46754;DHT22;32500;50.620;3.400;2022-10-16T09:51:23;18.80;80.00
46754;DHT22;32500;50.620;3.400;2022-10-16T09:53:53;18.80;80.00
46754;DHT22;32500;50.620;3.400;2022-10-16T09:56:24;18.80;79.90
46754;DHT22;32500;50.620;3.400;2022-10-16T09:58:50;18.80;79.80
46754;DHT22;32500;50.620;3.400;2022-10-16T10:01:16;18.80;79.90
46754;DHT22;32500;50.620;3.400;2022-10-16T10:03:43;18.80;80.00
46754;DHT22;32500;50.620;3.400;2022-10-16T10:06:20;18.80;80.10
46754;DHT22;32500;50.620;3.400;2022-10-16T10:12:39;18.80;80.10
46754;DHT22;32500;50.620;3.400;2022-10-16T10:14:35;18.80;80.10
46754;DHT22;32500;50.620;3.400;2022-10-16T10:22:19;18.80;80.60
46754;DHT22;32500;50.620;3.400;2022-10-16T10:27:32;18.70;80.80
46754;DHT22;32500;50.620;3.400;2022-10-16T10:30:03;18.80;80.90
46754;DHT22;32500;50.620;3.400;2022-10-16T10:32:34;18.80;80.90
46754;DHT22;32500;50.620;3.400;2022-10-16T10:37:40;18.80;81.00
46754;DHT22;32500;50.620;3.400;2022-10-16T10:42:51;18.80;81.00
46754;DHT22;32500;50.620;3.400;2022-10-16T10:45:41;18.80;81.20
46754;DHT22;32500;50.620;3.400;2022-10-16T10:48:20;18.80;81.20
46754;DHT22;32500;50.620;3.400;2022-10-16T10:50:54;18.80;81.30
46754;DHT22;32500;50.620;3.400;2022-10-16T10:53:29;18.80;81.30
46754;DHT22;32500;50.620;3.400;2022-10-16T10:58:40;18.80;81.40
46754;DHT22;32500;50.620;3.400;2022-10-16T11:01:11;18.80;81.40
46754;DHT22;32500;50.620;3.400;2022-10-16T11:03:53;18.80;81.50
46754;DHT22;32500;50.620;3.400;2022-10-16T11:06:25;18.80;81.30
46754;DHT22;32500;50.620;3.400;2022-10-16T11:08:53;18.90;81.50
46754;DHT22;32500;50.620;3.400;2022-10-16T11:11:24;18.80;81.50
46754;DHT22;32500;50.620;3.400;2022-10-16T11:14:01;18.80;81.50
46754;DHT22;32500;50.620;3.400;2022-10-16T11:16:36;18.90;81.60
46754;DHT22;32500;50.620;3.400;2022-10-16T11:21:54;18.90;81.60
46754;DHT22;32500;50.620;3.400;2022-10-16T11:24:29;18.90;81.50
46754;DHT22;32500;50.620;3.400;2022-10-16T11:26:59;18.90;81.50
46754;DHT22;32500;50.620;3.400;2022-10-16T11:29:29;18.90;81.40
46754;DHT22;32500;50.620;3.400;2022-10-16T11:32:05;18.90;81.40
46754;DHT22;32500;50.620;3.400;2022-10-16T11:34:34;18.90;81.30
46754;DHT22;32500;50.620;3.400;2022-10-16T11:37:02;18.90;81.20
46754;DHT22;32500;50.620;3.400;2022-10-16T11:39:30;18.90;81.30
46754;DHT22;32500;50.620;3.400;2022-10-16T11:42:02;18.90;81.30
46754;DHT22;32500;50.620;3.400;2022-10-16T11:49:30;19.00;81.10
46754;DHT22;32500;50.620;3.400;2022-10-16T11:52:03;18.90;81.00
46754;DHT22;32500;50.620;3.400;2022-10-16T11:57:17;19.00;81.10
46754;DHT22;32500;50.620;3.400;2022-10-16T11:59:48;19.00;81.00
46754;DHT22;32500;50.620;3.400;2022-10-16T12:05:15;19.00;81.00
46754;DHT22;32500;50.620;3.400;2022-10-16T12:07:47;19.00;81.00
46754;DHT22;32500;50.620;3.400;2022-10-16T12:10:20;19.00;81.00
46754;DHT22;32500;50.620;3.400;2022-10-16T12:12:46;19.00;80.90
46754;DHT22;32500;50.620;3.400;2022-10-16T12:17:43;19.00;80.90
46754;DHT22;32500;50.620;3.400;2022-10-16T12:22:40;19.00;80.90
46754;DHT22;32500;50.620;3.400;2022-10-16T12:25:18;19.00;80.80
46754;DHT22;32500;50.620;3.400;2022-10-16T12:27:45;19.00;80.80
46754;DHT22;32500;50.620;3.400;2022-10-16T12:30:14;19.00;80.80
46754;DHT22;32500;50.620;3.400;2022-10-16T12:32:45;19.10;81.00
46754;DHT22;32500;50.620;3.400;2022-10-16T12:35:28;19.10;81.00
46754;DHT22;32500;50.620;3.400;2022-10-16T12:38:03;19.10;81.00
46754;DHT22;32500;50.620;3.400;2022-10-16T12:40:30;19.10;81.00
46754;DHT22;32500;50.620;3.400;2022-10-16T12:42:56;19.10;80.70
46754;DHT22;32500;50.620;3.400;2022-10-16T12:47:48;19.10;80.70
46754;DHT22;32500;50.620;3.400;2022-10-16T12:53:19;19.40;77.30
46754;DHT22;32500;50.620;3.400;2022-10-16T12:55:52;19.40;76.50
46754;DHT22;32500;50.620;3.400;2022-10-16T13:00:48;19.40;76.70
46754;DHT22;32500;50.620;3.400;2022-10-16T13:13:18;19.40;74.80
46754;DHT22;32500;50.620;3.400;2022-10-16T13:26:28;19.60;76.10
46754;DHT22;32500;50.620;3.400;2022-10-16T13:28:58;19.60;75.00
46754;DHT22;32500;50.620;3.400;2022-10-16T13:31:23;19.50;75.10
46754;DHT22;32500;50.620;3.400;2022-10-16T13:33:51;19.50;75.40
46754;DHT22;32500;50.620;3.400;2022-10-16T13:36:24;19.50;75.60
46754;DHT22;32500;50.620;3.400;2022-10-16T13:38:59;19.50;76.10
46754;DHT22;32500;50.620;3.400;2022-10-16T13:41:25;19.60;75.10
46754;DHT22;32500;50.620;3.400;2022-10-16T13:43:51;19.60;76.10
46754;DHT22;32500;50.620;3.400;2022-10-16T13:46:21;19.60;75.60
46754;DHT22;32500;50.620;3.400;2022-10-16T13:49:32;19.70;75.30
46754;DHT22;32500;50.620;3.400;2022-10-16T13:51:33;19.80;74.70
46754;DHT22;32500;50.620;3.400;2022-10-16T13:53:59;19.80;74.20
46754;DHT22;32500;50.620;3.400;2022-10-16T13:56:26;19.70;74.30
46754;DHT22;32500;50.620;3.400;2022-10-16T14:01:27;19.70;74.70
46754;DHT22;32500;50.620;3.400;2022-10-16T14:03:59;19.80;73.70
46754;DHT22;32500;50.620;3.400;2022-10-16T14:06:25;19.80;73.70
46754;DHT22;32500;50.620;3.400;2022-10-16T14:08:56;19.80;73.80
46754;DHT22;32500;50.620;3.400;2022-10-16T14:11:23;19.80;73.40
46754;DHT22;32500;50.620;3.400;2022-10-16T14:13:49;19.90;72.30
46754;DHT22;32500;50.620;3.400;2022-10-16T14:16:20;19.80;73.50
46754;DHT22;32500;50.620;3.400;2022-10-16T14:18:46;19.90;72.70
46754;DHT22;32500;50.620;3.400;2022-10-16T14:21:17;19.90;72.30
46754;DHT22;32500;50.620;3.400;2022-10-16T14:23:43;19.90;73.50
46754;DHT22;32500;50.620;3.400;2022-10-16T14:28:35;19.90;73.80
46754;DHT22;32500;50.620;3.400;2022-10-16T14:31:02;19.90;72.40
46754;DHT22;32500;50.620;3.400;2022-10-16T14:35:59;19.90;72.70
46754;DHT22;32500;50.620;3.400;2022-10-16T14:38:25;19.90;72.40
46754;DHT22;32500;50.620;3.400;2022-10-16T14:40:51;19.80;73.20
46754;DHT22;32500;50.620;3.400;2022-10-16T14:43:20;19.80;76.80
46754;DHT22;32500;50.620;3.400;2022-10-16T14:45:53;19.90;75.60
46754;DHT22;32500;50.620;3.400;2022-10-16T14:48:19;19.90;77.00
46754;DHT22;32500;50.620;3.400;2022-10-16T14:50:46;19.80;77.10
46754;DHT22;32500;50.620;3.400;2022-10-16T14:53:11;20.00;75.90
46754;DHT22;32500;50.620;3.400;2022-10-16T14:55:38;20.00;76.00
46754;DHT22;32500;50.620;3.400;2022-10-16T14:58:03;20.10;75.70
46754;DHT22;32500;50.620;3.400;2022-10-16T15:00:29;20.00;72.50
46754;DHT22;32500;50.620;3.400;2022-10-16T15:02:54;20.00;74.90
46754;DHT22;32500;50.620;3.400;2022-10-16T15:05:21;19.90;76.90
46754;DHT22;32500;50.620;3.400;2022-10-16T15:07:50;20.00;75.50
46754;DHT22;32500;50.620;3.400;2022-10-16T15:10:16;19.90;75.00
46754;DHT22;32500;50.620;3.400;2022-10-16T15:12:42;20.00;75.90
46754;DHT22;32500;50.620;3.400;2022-10-16T15:15:21;19.90;74.60
46754;DHT22;32500;50.620;3.400;2022-10-16T15:17:52;20.00;74.50
46754;DHT22;32500;50.620;3.400;2022-10-16T15:20:19;19.90;73.40
46754;DHT22;32500;50.620;3.400;2022-10-16T15:22:44;19.90;72.20
46754;DHT22;32500;50.620;3.400;2022-10-16T15:27:51;19.80;73.10
46754;DHT22;32500;50.620;3.400;2022-10-16T15:30:16;19.70;72.70
46754;DHT22;32500;50.620;3.400;2022-10-16T15:32:42;19.70;73.80
46754;DHT22;32500;50.620;3.400;2022-10-16T15:35:08;19.80;75.10
46754;DHT22;32500;50.620;3.400;2022-10-16T15:37:34;19.80;74.70
46754;DHT22;32500;50.620;3.400;2022-10-16T15:39:59;19.60;73.20
46754;DHT22;32500;50.620;3.400;2022-10-16T15:42:25;19.70;75.80
46754;DHT22;32500;50.620;3.400;2022-10-16T15:44:50;19.90;74.70
46754;DHT22;32500;50.620;3.400;2022-10-16T15:47:16;20.10;74.10
46754;DHT22;32500;50.620;3.400;2022-10-16T15:49:42;20.10;73.70
46754;DHT22;32500;50.620;3.400;2022-10-16T15:52:07;20.20;73.50
46754;DHT22;32500;50.620;3.400;2022-10-16T15:54:33;20.20;73.30
46754;DHT22;32500;50.620;3.400;2022-10-16T15:56:58;20.20;73.20
46754;DHT22;32500;50.620;3.400;2022-10-16T15:59:24;20.20;73.10
46754;DHT22;32500;50.620;3.400;2022-10-16T16:01:49;20.20;73.10
46754;DHT22;32500;50.620;3.400;2022-10-16T16:04:15;20.20;73.10
46754;DHT22;32500;50.620;3.400;2022-10-16T16:06:42;20.20;73.00
46754;DHT22;32500;50.620;3.400;2022-10-16T16:09:10;20.20;72.90
46754;DHT22;32500;50.620;3.400;2022-10-16T16:11:36;20.30;72.70
46754;DHT22;32500;50.620;3.400;2022-10-16T16:14:04;20.30;72.60
46754;DHT22;32500;50.620;3.400;2022-10-16T16:16:30;20.30;72.50
46754;DHT22;32500;50.620;3.400;2022-10-16T16:18:57;20.30;72.50
46754;DHT22;32500;50.620;3.400;2022-10-16T16:21:22;20.30;72.40
46754;DHT22;32500;50.620;3.400;2022-10-16T16:23:48;20.30;72.40
46754;DHT22;32500;50.620;3.400;2022-10-16T16:26:15;20.30;72.30
46754;DHT22;32500;50.620;3.400;2022-10-16T16:28:41;20.30;72.20
46754;DHT22;32500;50.620;3.400;2022-10-16T16:31:06;20.30;72.20
46754;DHT22;32500;50.620;3.400;2022-10-16T16:33:32;20.30;73.40
46754;DHT22;32500;50.620;3.400;2022-10-16T16:35:58;20.30;74.80
46754;DHT22;32500;50.620;3.400;2022-10-16T16:38:24;20.30;74.50
46754;DHT22;32500;50.620;3.400;2022-10-16T16:40:50;20.30;75.00
46754;DHT22;32500;50.620;3.400;2022-10-16T16:43:17;20.40;74.70
46754;DHT22;32500;50.620;3.400;2022-10-16T16:45:42;20.40;76.10
46754;DHT22;32500;50.620;3.400;2022-10-16T16:48:08;20.30;75.30
46754;DHT22;32500;50.620;3.400;2022-10-16T16:50:37;20.40;76.40
46754;DHT22;32500;50.620;3.400;2022-10-16T16:53:02;20.40;77.60
46754;DHT22;32500;50.620;3.400;2022-10-16T16:55:28;20.40;78.30
46754;DHT22;32500;50.620;3.400;2022-10-16T16:57:54;20.40;78.90
46754;DHT22;32500;50.620;3.400;2022-10-16T17:00:20;20.50;79.80
46754;DHT22;32500;50.620;3.400;2022-10-16T17:02:48;20.40;79.30
46754;DHT22;32500;50.620;3.400;2022-10-16T17:05:14;20.50;79.90
46754;DHT22;32500;50.620;3.400;2022-10-16T17:07:40;20.50;79.80
46754;DHT22;32500;50.620;3.400;2022-10-16T17:10:06;20.50;79.40
46754;DHT22;32500;50.620;3.400;2022-10-16T17:12:32;20.50;79.20
46754;DHT22;32500;50.620;3.400;2022-10-16T17:14:57;20.50;78.70
46754;DHT22;32500;50.620;3.400;2022-10-16T17:17:23;20.50;78.20
46754;DHT22;32500;50.620;3.400;2022-10-16T17:19:49;20.50;77.80
46754;DHT22;32500;50.620;3.400;2022-10-16T17:22:15;20.50;77.40